sensor_id;sensor_type;location;lat;lon;timestamp;P1;durP1;ratioP1;P2;durP2;ratioP2
13979;SDS011;73871;49.900;8.594;2024-01-30T00:02:02;21.70;;;16.37;;
13979;SDS011;73871;49.900;8.594;2024-01-30T00:04:29;24.40;;;16.13;;
13979;SDS011;73871;49.900;8.594;2024-01-30T00:06:56;19.17;;;13.93;;
13979;SDS011;73871;49.900;8.594;2024-01-30T00:09:23;19.77;;;14.30;;
13979;SDS011;73871;49.900;8.594;2024-01-30T00:11:50;20.40;;;14.57;;
13979;SDS011;73871;49.900;8.594;2024-01-30T00:14:17;17.10;;;13.27;;
13979;SDS011;73871;49.900;8.594;2024-01-30T00:16:44;16.40;;;13.23;;
13979;SDS011;73871;49.900;8.594;2024-01-30T00:19:11;17.47;;;12.90;;
13979;SDS011;73871;49.900;8.594;2024-01-30T00:21:38;15.67;;;12.87;;
13979;SDS011;73871;49.900;8.594;2024-01-30T00:24:05;18.97;;;13.07;;
13979;SDS011;73871;49.900;8.594;2024-01-30T00:26:31;18.90;;;12.13;;
13979;SDS011;73871;49.900;8.594;2024-01-30T00:28:58;15.77;;;11.97;;
13979;SDS011;73871;49.900;8.594;2024-01-30T00:31:25;16.60;;;11.60;;
13979;SDS011;73871;49.900;8.594;2024-01-30T00:33:52;16.43;;;12.17;;
13979;SDS011;73871;49.900;8.594;2024-01-30T00:36:19;14.23;;;11.20;;
13979;SDS011;73871;49.900;8.594;2024-01-30T00:38:46;15.67;;;11.80;;
13979;SDS011;73871;49.900;8.594;2024-01-30T00:41:12;16.47;;;12.37;;
13979;SDS011;73871;49.900;8.594;2024-01-30T00:43:39;15.27;;;12.23;;
13979;SDS011;73871;49.900;8.594;2024-01-30T00:46:06;16.03;;;11.77;;
13979;SDS011;73871;49.900;8.594;2024-01-30T00:48:33;15.50;;;11.10;;
13979;SDS011;73871;49.900;8.594;2024-01-30T00:51:00;15.80;;;11.63;;
13979;SDS011;73871;49.900;8.594;2024-01-30T00:53:26;14.77;;;11.87;;
13979;SDS011;73871;49.900;8.594;2024-01-30T00:55:53;15.37;;;11.50;;
13979;SDS011;73871;49.900;8.594;2024-01-30T00:58:20;16.13;;;11.43;;
13979;SDS011;73871;49.900;8.594;2024-01-30T01:00:47;13.23;;;11.17;;
13979;SDS011;73871;49.900;8.594;2024-01-30T01:03:13;15.50;;;11.13;;
13979;SDS011;73871;49.900;8.594;2024-01-30T01:05:40;19.33;;;12.10;;
13979;SDS011;73871;49.900;8.594;2024-01-30T01:08:07;18.93;;;12.93;;
13979;SDS011;73871;49.900;8.594;2024-01-30T01:10:35;16.70;;;11.97;;
13979;SDS011;73871;49.900;8.594;2024-01-30T01:13:02;17.00;;;13.00;;
13979;SDS011;73871;49.900;8.594;2024-01-30T01:15:29;16.80;;;12.60;;
13979;SDS011;73871;49.900;8.594;2024-01-30T01:17:56;16.93;;;12.37;;
13979;SDS011;73871;49.900;8.594;2024-01-30T01:20:23;17.60;;;12.47;;
13979;SDS011;73871;49.900;8.594;2024-01-30T01:22:49;17.37;;;12.80;;
13979;SDS011;73871;49.900;8.594;2024-01-30T01:25:16;14.27;;;12.30;;
13979;SDS011;73871;49.900;8.594;2024-01-30T01:27:43;16.43;;;12.37;;
13979;SDS011;73871;49.900;8.594;2024-01-30T01:30:17;15.67;;;11.83;;
13979;SDS011;73871;49.900;8.594;2024-01-30T01:32:50;17.87;;;12.53;;
13979;SDS011;73871;49.900;8.594;2024-01-30T01:35:24;16.83;;;11.57;;
13979;SDS011;73871;49.900;8.594;2024-01-30T01:37:51;17.17;;;12.70;;
13979;SDS011;73871;49.900;8.594;2024-01-30T01:40:25;13.63;;;11.60;;
13979;SDS011;73871;49.900;8.594;2024-01-30T01:42:53;16.63;;;11.30;;
13979;SDS011;73871;49.900;8.594;2024-01-30T01:45:21;15.10;;;11.70;;
13979;SDS011;73871;49.900;8.594;2024-01-30T01:47:50;16.20;;;12.03;;
13979;SDS011;73871;49.900;8.594;2024-01-30T01:50:18;15.80;;;11.23;;
13979;SDS011;73871;49.900;8.594;2024-01-30T01:52:47;12.73;;;10.50;;
13979;SDS011;73871;49.900;8.594;2024-01-30T01:55:14;17.80;;;11.83;;
13979;SDS011;73871;49.900;8.594;2024-01-30T01:57:42;14.67;;;10.87;;
13979;SDS011;73871;49.900;8.594;2024-01-30T02:00:09;16.77;;;11.40;;
13979;SDS011;73871;49.900;8.594;2024-01-30T02:02:37;14.13;;;11.57;;
13979;SDS011;73871;49.900;8.594;2024-01-30T02:05:05;14.83;;;10.77;;
13979;SDS011;73871;49.900;8.594;2024-01-30T02:07:32;14.57;;;11.57;;
13979;SDS011;73871;49.900;8.594;2024-01-30T02:09:59;15.20;;;11.77;;
13979;SDS011;73871;49.900;8.594;2024-01-30T02:12:26;16.10;;;11.97;;
13979;SDS011;73871;49.900;8.594;2024-01-30T02:14:53;15.83;;;11.83;;
13979;SDS011;73871;49.900;8.594;2024-01-30T02:17:21;16.83;;;12.97;;
13979;SDS011;73871;49.900;8.594;2024-01-30T02:19:49;15.23;;;12.33;;
13979;SDS011;73871;49.900;8.594;2024-01-30T02:22:16;14.93;;;11.50;;
13979;SDS011;73871;49.900;8.594;2024-01-30T02:24:44;14.90;;;11.50;;
13979;SDS011;73871;49.900;8.594;2024-01-30T02:27:11;17.27;;;13.80;;
13979;SDS011;73871;49.900;8.594;2024-01-30T02:29:37;16.47;;;12.77;;
13979;SDS011;73871;49.900;8.594;2024-01-30T02:32:04;16.10;;;12.93;;
13979;SDS011;73871;49.900;8.594;2024-01-30T02:34:32;14.97;;;13.17;;
13979;SDS011;73871;49.900;8.594;2024-01-30T02:36:59;16.13;;;13.47;;
13979;SDS011;73871;49.900;8.594;2024-01-30T02:39:26;15.30;;;12.83;;
13979;SDS011;73871;49.900;8.594;2024-01-30T02:41:52;15.80;;;13.03;;
13979;SDS011;73871;49.900;8.594;2024-01-30T02:44:19;15.70;;;12.63;;
13979;SDS011;73871;49.900;8.594;2024-01-30T02:46:46;14.50;;;12.10;;
13979;SDS011;73871;49.900;8.594;2024-01-30T02:49:13;17.33;;;12.90;;
13979;SDS011;73871;49.900;8.594;2024-01-30T02:51:40;20.63;;;13.43;;
13979;SDS011;73871;49.900;8.594;2024-01-30T02:54:06;15.20;;;12.03;;
13979;SDS011;73871;49.900;8.594;2024-01-30T02:56:33;15.13;;;12.37;;
13979;SDS011;73871;49.900;8.594;2024-01-30T02:59:00;14.17;;;11.60;;
13979;SDS011;73871;49.900;8.594;2024-01-30T03:01:26;16.13;;;13.03;;
13979;SDS011;73871;49.900;8.594;2024-01-30T03:03:53;16.70;;;12.43;;
13979;SDS011;73871;49.900;8.594;2024-01-30T03:06:20;16.43;;;12.13;;
13979;SDS011;73871;49.900;8.594;2024-01-30T03:08:49;14.57;;;11.50;;
13979;SDS011;73871;49.900;8.594;2024-01-30T03:11:15;15.03;;;12.00;;
13979;SDS011;73871;49.900;8.594;2024-01-30T03:13:42;14.73;;;12.00;;
13979;SDS011;73871;49.900;8.594;2024-01-30T03:16:09;14.23;;;12.67;;
13979;SDS011;73871;49.900;8.594;2024-01-30T03:18:36;14.90;;;11.60;;
13979;SDS011;73871;49.900;8.594;2024-01-30T03:21:02;14.87;;;12.03;;
13979;SDS011;73871;49.900;8.594;2024-01-30T03:23:29;16.13;;;12.53;;
13979;SDS011;73871;49.900;8.594;2024-01-30T03:25:58;16.77;;;12.80;;
13979;SDS011;73871;49.900;8.594;2024-01-30T03:28:25;13.67;;;11.73;;
13979;SDS011;73871;49.900;8.594;2024-01-30T03:30:52;15.33;;;13.03;;
13979;SDS011;73871;49.900;8.594;2024-01-30T03:33:18;18.70;;;12.70;;
13979;SDS011;73871;49.900;8.594;2024-01-30T03:35:45;15.33;;;12.23;;
13979;SDS011;73871;49.900;8.594;2024-01-30T03:38:12;14.90;;;12.00;;
13979;SDS011;73871;49.900;8.594;2024-01-30T03:40:39;15.03;;;12.57;;
13979;SDS011;73871;49.900;8.594;2024-01-30T03:43:05;14.23;;;12.73;;
13979;SDS011;73871;49.900;8.594;2024-01-30T03:45:32;16.17;;;12.50;;
13979;SDS011;73871;49.900;8.594;2024-01-30T03:47:59;16.43;;;12.13;;
13979;SDS011;73871;49.900;8.594;2024-01-30T03:50:26;15.10;;;12.93;;
13979;SDS011;73871;49.900;8.594;2024-01-30T03:52:54;18.63;;;12.87;;
13979;SDS011;73871;49.900;8.594;2024-01-30T03:55:21;17.50;;;13.90;;
13979;SDS011;73871;49.900;8.594;2024-01-30T03:57:47;16.03;;;13.10;;
13979;SDS011;73871;49.900;8.594;2024-01-30T04:00:14;16.43;;;14.40;;
13979;SDS011;73871;49.900;8.594;2024-01-30T04:02:41;17.53;;;13.00;;
13979;SDS011;73871;49.900;8.594;2024-01-30T04:05:08;15.37;;;12.87;;
13979;SDS011;73871;49.900;8.594;2024-01-30T04:07:35;18.90;;;14.10;;
13979;SDS011;73871;49.900;8.594;2024-01-30T04:10:02;17.10;;;13.60;;
13979;SDS011;73871;49.900;8.594;2024-01-30T04:12:31;16.87;;;13.50;;
13979;SDS011;73871;49.900;8.594;2024-01-30T04:14:58;14.43;;;12.33;;
13979;SDS011;73871;49.900;8.594;2024-01-30T04:17:25;16.87;;;12.83;;
13979;SDS011;73871;49.900;8.594;2024-01-30T04:19:51;16.63;;;12.87;;
13979;SDS011;73871;49.900;8.594;2024-01-30T04:22:18;15.57;;;13.33;;
13979;SDS011;73871;49.900;8.594;2024-01-30T04:24:45;17.10;;;13.20;;
13979;SDS011;73871;49.900;8.594;2024-01-30T04:27:12;15.50;;;13.10;;
13979;SDS011;73871;49.900;8.594;2024-01-30T04:29:39;19.03;;;13.83;;
13979;SDS011;73871;49.900;8.594;2024-01-30T04:32:06;16.67;;;13.40;;
13979;SDS011;73871;49.900;8.594;2024-01-30T04:34:32;15.00;;;12.90;;
13979;SDS011;73871;49.900;8.594;2024-01-30T04:36:59;17.43;;;12.77;;
13979;SDS011;73871;49.900;8.594;2024-01-30T04:39:26;16.67;;;12.53;;
13979;SDS011;73871;49.900;8.594;2024-01-30T04:41:53;16.47;;;12.90;;
13979;SDS011;73871;49.900;8.594;2024-01-30T04:44:20;15.77;;;12.10;;
13979;SDS011;73871;49.900;8.594;2024-01-30T04:46:47;15.10;;;12.00;;
13979;SDS011;73871;49.900;8.594;2024-01-30T04:49:14;13.90;;;11.37;;
13979;SDS011;73871;49.900;8.594;2024-01-30T04:51:40;13.53;;;10.77;;
13979;SDS011;73871;49.900;8.594;2024-01-30T04:54:07;16.23;;;12.43;;
13979;SDS011;73871;49.900;8.594;2024-01-30T04:56:34;13.83;;;11.63;;
13979;SDS011;73871;49.900;8.594;2024-01-30T04:59:02;14.30;;;11.60;;
13979;SDS011;73871;49.900;8.594;2024-01-30T05:01:29;13.83;;;10.50;;
13979;SDS011;73871;49.900;8.594;2024-01-30T05:03:55;14.00;;;11.17;;
13979;SDS011;73871;49.900;8.594;2024-01-30T05:06:26;13.70;;;10.20;;
13979;SDS011;73871;49.900;8.594;2024-01-30T05:08:53;13.73;;;10.33;;
13979;SDS011;73871;49.900;8.594;2024-01-30T05:11:20;15.30;;;10.47;;
13979;SDS011;73871;49.900;8.594;2024-01-30T05:13:47;17.43;;;10.20;;
13979;SDS011;73871;49.900;8.594;2024-01-30T05:16:13;13.30;;;11.07;;
13979;SDS011;73871;49.900;8.594;2024-01-30T05:18:40;11.50;;;9.70;;
13979;SDS011;73871;49.900;8.594;2024-01-30T05:21:07;12.47;;;10.57;;
13979;SDS011;73871;49.900;8.594;2024-01-30T05:23:34;13.73;;;10.73;;
13979;SDS011;73871;49.900;8.594;2024-01-30T05:26:01;14.40;;;10.57;;
13979;SDS011;73871;49.900;8.594;2024-01-30T05:28:29;13.63;;;10.90;;
13979;SDS011;73871;49.900;8.594;2024-01-30T05:30:56;13.50;;;10.33;;
13979;SDS011;73871;49.900;8.594;2024-01-30T05:33:23;13.03;;;11.33;;
13979;SDS011;73871;49.900;8.594;2024-01-30T05:35:50;15.67;;;10.23;;
13979;SDS011;73871;49.900;8.594;2024-01-30T05:38:20;14.63;;;11.03;;
13979;SDS011;73871;49.900;8.594;2024-01-30T05:40:47;12.27;;;10.27;;
13979;SDS011;73871;49.900;8.594;2024-01-30T05:43:13;15.27;;;11.43;;
13979;SDS011;73871;49.900;8.594;2024-01-30T05:45:40;12.97;;;10.73;;
13979;SDS011;73871;49.900;8.594;2024-01-30T05:48:07;14.87;;;11.80;;
13979;SDS011;73871;49.900;8.594;2024-01-30T05:50:34;15.27;;;11.53;;
13979;SDS011;73871;49.900;8.594;2024-01-30T05:53:01;16.43;;;12.47;;
13979;SDS011;73871;49.900;8.594;2024-01-30T05:55:28;13.63;;;11.60;;
13979;SDS011;73871;49.900;8.594;2024-01-30T05:57:54;12.67;;;10.93;;
13979;SDS011;73871;49.900;8.594;2024-01-30T06:00:21;14.70;;;12.03;;
13979;SDS011;73871;49.900;8.594;2024-01-30T06:02:48;15.20;;;12.03;;
13979;SDS011;73871;49.900;8.594;2024-01-30T06:05:15;16.10;;;12.30;;
13979;SDS011;73871;49.900;8.594;2024-01-30T06:07:42;17.83;;;12.13;;
13979;SDS011;73871;49.900;8.594;2024-01-30T06:10:09;15.23;;;11.73;;
13979;SDS011;73871;49.900;8.594;2024-01-30T06:12:36;17.63;;;13.20;;
13979;SDS011;73871;49.900;8.594;2024-01-30T06:15:03;15.33;;;12.37;;
13979;SDS011;73871;49.900;8.594;2024-01-30T06:17:30;15.30;;;12.80;;
13979;SDS011;73871;49.900;8.594;2024-01-30T06:19:57;19.23;;;13.03;;
13979;SDS011;73871;49.900;8.594;2024-01-30T06:22:24;16.87;;;12.03;;
13979;SDS011;73871;49.900;8.594;2024-01-30T06:24:50;15.53;;;12.93;;
13979;SDS011;73871;49.900;8.594;2024-01-30T06:27:17;17.83;;;12.87;;
13979;SDS011;73871;49.900;8.594;2024-01-30T06:29:44;18.37;;;13.23;;
13979;SDS011;73871;49.900;8.594;2024-01-30T06:32:12;15.77;;;12.60;;
13979;SDS011;73871;49.900;8.594;2024-01-30T06:34:38;17.00;;;13.50;;
13979;SDS011;73871;49.900;8.594;2024-01-30T06:37:06;15.20;;;13.10;;
13979;SDS011;73871;49.900;8.594;2024-01-30T06:39:33;16.23;;;12.90;;
13979;SDS011;73871;49.900;8.594;2024-01-30T06:42:00;14.23;;;12.60;;
13979;SDS011;73871;49.900;8.594;2024-01-30T06:44:27;16.17;;;12.90;;
13979;SDS011;73871;49.900;8.594;2024-01-30T06:46:58;16.50;;;13.43;;
13979;SDS011;73871;49.900;8.594;2024-01-30T06:49:25;14.53;;;11.93;;
13979;SDS011;73871;49.900;8.594;2024-01-30T06:51:52;14.87;;;12.37;;
13979;SDS011;73871;49.900;8.594;2024-01-30T06:54:19;16.03;;;13.37;;
13979;SDS011;73871;49.900;8.594;2024-01-30T06:56:45;15.40;;;13.40;;
13979;SDS011;73871;49.900;8.594;2024-01-30T06:59:12;15.87;;;12.57;;
13979;SDS011;73871;49.900;8.594;2024-01-30T07:01:39;17.13;;;13.57;;
13979;SDS011;73871;49.900;8.594;2024-01-30T07:04:06;17.20;;;12.83;;
13979;SDS011;73871;49.900;8.594;2024-01-30T07:06:32;15.13;;;12.57;;
13979;SDS011;73871;49.900;8.594;2024-01-30T07:08:59;20.53;;;14.13;;
13979;SDS011;73871;49.900;8.594;2024-01-30T07:11:26;18.30;;;14.43;;
13979;SDS011;73871;49.900;8.594;2024-01-30T07:13:54;16.40;;;13.20;;
13979;SDS011;73871;49.900;8.594;2024-01-30T07:16:21;18.50;;;12.73;;
13979;SDS011;73871;49.900;8.594;2024-01-30T07:18:51;17.83;;;12.93;;
13979;SDS011;73871;49.900;8.594;2024-01-30T07:21:18;18.43;;;14.70;;
13979;SDS011;73871;49.900;8.594;2024-01-30T07:23:47;19.10;;;13.83;;
13979;SDS011;73871;49.900;8.594;2024-01-30T07:26:14;18.50;;;14.27;;
13979;SDS011;73871;49.900;8.594;2024-01-30T07:28:41;16.63;;;13.17;;
13979;SDS011;73871;49.900;8.594;2024-01-30T07:31:08;16.50;;;14.17;;
13979;SDS011;73871;49.900;8.594;2024-01-30T07:33:34;19.70;;;14.33;;
13979;SDS011;73871;49.900;8.594;2024-01-30T07:36:02;20.20;;;14.20;;
13979;SDS011;73871;49.900;8.594;2024-01-30T07:38:31;16.73;;;13.57;;
13979;SDS011;73871;49.900;8.594;2024-01-30T07:40:58;16.20;;;14.17;;
13979;SDS011;73871;49.900;8.594;2024-01-30T07:43:24;15.47;;;12.67;;
13979;SDS011;73871;49.900;8.594;2024-01-30T07:45:52;17.30;;;13.13;;
13979;SDS011;73871;49.900;8.594;2024-01-30T07:48:18;16.73;;;12.90;;
13979;SDS011;73871;49.900;8.594;2024-01-30T07:50:45;16.43;;;13.20;;
13979;SDS011;73871;49.900;8.594;2024-01-30T07:53:12;18.33;;;14.27;;
13979;SDS011;73871;49.900;8.594;2024-01-30T07:55:39;17.90;;;13.67;;
13979;SDS011;73871;49.900;8.594;2024-01-30T07:58:05;17.73;;;12.90;;
13979;SDS011;73871;49.900;8.594;2024-01-30T08:00:32;18.33;;;13.87;;
13979;SDS011;73871;49.900;8.594;2024-01-30T08:02:59;20.60;;;13.83;;
13979;SDS011;73871;49.900;8.594;2024-01-30T08:05:26;18.67;;;13.20;;
13979;SDS011;73871;49.900;8.594;2024-01-30T08:07:54;20.33;;;14.03;;
13979;SDS011;73871;49.900;8.594;2024-01-30T08:10:21;17.63;;;14.10;;
13979;SDS011;73871;49.900;8.594;2024-01-30T08:12:48;16.80;;;13.67;;
13979;SDS011;73871;49.900;8.594;2024-01-30T08:15:14;18.37;;;13.80;;
13979;SDS011;73871;49.900;8.594;2024-01-30T08:17:41;15.97;;;14.00;;
13979;SDS011;73871;49.900;8.594;2024-01-30T08:20:08;17.50;;;14.40;;
13979;SDS011;73871;49.900;8.594;2024-01-30T08:22:40;17.97;;;13.33;;
13979;SDS011;73871;49.900;8.594;2024-01-30T08:25:07;17.07;;;13.03;;
13979;SDS011;73871;49.900;8.594;2024-01-30T08:27:34;20.23;;;13.53;;
13979;SDS011;73871;49.900;8.594;2024-01-30T08:30:05;17.60;;;13.43;;
13979;SDS011;73871;49.900;8.594;2024-01-30T08:32:32;16.73;;;13.53;;
13979;SDS011;73871;49.900;8.594;2024-01-30T08:34:59;16.67;;;13.70;;
13979;SDS011;73871;49.900;8.594;2024-01-30T08:37:30;15.53;;;13.37;;
13979;SDS011;73871;49.900;8.594;2024-01-30T08:39:57;16.07;;;13.53;;
13979;SDS011;73871;49.900;8.594;2024-01-30T08:42:24;15.00;;;12.73;;
13979;SDS011;73871;49.900;8.594;2024-01-30T08:44:51;17.37;;;14.83;;
13979;SDS011;73871;49.900;8.594;2024-01-30T08:47:19;17.53;;;14.30;;
13979;SDS011;73871;49.900;8.594;2024-01-30T08:49:46;16.10;;;14.47;;
13979;SDS011;73871;49.900;8.594;2024-01-30T08:52:13;14.63;;;13.00;;
13979;SDS011;73871;49.900;8.594;2024-01-30T08:54:39;17.03;;;13.77;;
13979;SDS011;73871;49.900;8.594;2024-01-30T08:57:06;15.83;;;13.10;;
13979;SDS011;73871;49.900;8.594;2024-01-30T08:59:33;18.40;;;13.60;;
13979;SDS011;73871;49.900;8.594;2024-01-30T09:02:00;17.93;;;14.03;;
13979;SDS011;73871;49.900;8.594;2024-01-30T09:04:37;15.37;;;13.77;;
13979;SDS011;73871;49.900;8.594;2024-01-30T09:07:05;14.83;;;13.23;;
13979;SDS011;73871;49.900;8.594;2024-01-30T09:09:39;16.00;;;13.60;;
13979;SDS011;73871;49.900;8.594;2024-01-30T09:12:09;16.27;;;14.53;;
13979;SDS011;73871;49.900;8.594;2024-01-30T09:14:38;16.30;;;14.60;;
13979;SDS011;73871;49.900;8.594;2024-01-30T09:17:06;15.83;;;14.00;;
13979;SDS011;73871;49.900;8.594;2024-01-30T09:19:33;15.97;;;13.23;;
13979;SDS011;73871;49.900;8.594;2024-01-30T09:22:00;15.07;;;13.57;;
13979;SDS011;73871;49.900;8.594;2024-01-30T09:24:27;15.70;;;13.63;;
13979;SDS011;73871;49.900;8.594;2024-01-30T09:26:54;14.40;;;12.77;;
13979;SDS011;73871;49.900;8.594;2024-01-30T09:29:21;13.77;;;12.37;;
13979;SDS011;73871;49.900;8.594;2024-01-30T09:31:48;16.00;;;13.07;;
13979;SDS011;73871;49.900;8.594;2024-01-30T09:34:14;19.60;;;13.47;;
13979;SDS011;73871;49.900;8.594;2024-01-30T09:36:41;15.03;;;13.40;;
13979;SDS011;73871;49.900;8.594;2024-01-30T09:39:08;15.50;;;13.23;;
13979;SDS011;73871;49.900;8.594;2024-01-30T09:41:38;15.70;;;13.17;;
13979;SDS011;73871;49.900;8.594;2024-01-30T09:44:39;17.57;;;13.17;;
13979;SDS011;73871;49.900;8.594;2024-01-30T09:47:09;15.33;;;13.73;;
13979;SDS011;73871;49.900;8.594;2024-01-30T09:49:36;14.00;;;12.50;;
13979;SDS011;73871;49.900;8.594;2024-01-30T09:52:05;15.30;;;12.73;;
13979;SDS011;73871;49.900;8.594;2024-01-30T09:54:32;17.20;;;12.53;;
13979;SDS011;73871;49.900;8.594;2024-01-30T09:57:02;14.57;;;13.07;;
13979;SDS011;73871;49.900;8.594;2024-01-30T09:59:30;14.20;;;12.83;;
13979;SDS011;73871;49.900;8.594;2024-01-30T10:01:57;15.37;;;13.53;;
13979;SDS011;73871;49.900;8.594;2024-01-30T10:04:24;16.37;;;13.03;;
13979;SDS011;73871;49.900;8.594;2024-01-30T10:06:51;18.10;;;12.87;;
13979;SDS011;73871;49.900;8.594;2024-01-30T10:09:18;14.97;;;13.50;;
13979;SDS011;73871;49.900;8.594;2024-01-30T10:11:45;15.83;;;13.03;;
13979;SDS011;73871;49.900;8.594;2024-01-30T10:14:12;19.03;;;14.60;;
13979;SDS011;73871;49.900;8.594;2024-01-30T10:16:39;19.77;;;15.43;;
13979;SDS011;73871;49.900;8.594;2024-01-30T10:19:05;18.17;;;15.23;;
13979;SDS011;73871;49.900;8.594;2024-01-30T10:21:32;15.00;;;13.50;;
13979;SDS011;73871;49.900;8.594;2024-01-30T10:23:59;15.50;;;13.90;;
13979;SDS011;73871;49.900;8.594;2024-01-30T10:26:26;19.20;;;15.13;;
13979;SDS011;73871;49.900;8.594;2024-01-30T10:28:53;16.00;;;14.30;;
13979;SDS011;73871;49.900;8.594;2024-01-30T10:31:19;15.90;;;13.93;;
13979;SDS011;73871;49.900;8.594;2024-01-30T10:33:46;16.70;;;15.00;;
13979;SDS011;73871;49.900;8.594;2024-01-30T10:36:13;15.60;;;13.27;;
13979;SDS011;73871;49.900;8.594;2024-01-30T10:38:46;15.17;;;13.67;;
13979;SDS011;73871;49.900;8.594;2024-01-30T10:41:17;17.70;;;14.30;;
13979;SDS011;73871;49.900;8.594;2024-01-30T10:43:50;19.57;;;13.50;;
13979;SDS011;73871;49.900;8.594;2024-01-30T10:46:35;18.03;;;14.23;;
13979;SDS011;73871;49.900;8.594;2024-01-30T10:49:04;17.23;;;14.13;;
13979;SDS011;73871;49.900;8.594;2024-01-30T10:51:32;16.63;;;14.80;;
13979;SDS011;73871;49.900;8.594;2024-01-30T10:54:00;15.53;;;14.03;;
13979;SDS011;73871;49.900;8.594;2024-01-30T10:56:29;14.90;;;13.30;;
13979;SDS011;73871;49.900;8.594;2024-01-30T10:58:58;15.70;;;13.60;;
13979;SDS011;73871;49.900;8.594;2024-01-30T11:01:25;19.23;;;14.33;;
13979;SDS011;73871;49.900;8.594;2024-01-30T11:03:54;15.13;;;12.80;;
13979;SDS011;73871;49.900;8.594;2024-01-30T11:06:23;15.10;;;12.57;;
13979;SDS011;73871;49.900;8.594;2024-01-30T11:09:00;16.10;;;14.00;;
13979;SDS011;73871;49.900;8.594;2024-01-30T11:11:52;16.67;;;14.57;;
13979;SDS011;73871;49.900;8.594;2024-01-30T11:14:27;18.77;;;14.10;;
13979;SDS011;73871;49.900;8.594;2024-01-30T11:16:58;16.57;;;13.40;;
13979;SDS011;73871;49.900;8.594;2024-01-30T11:19:26;15.97;;;14.13;;
13979;SDS011;73871;49.900;8.594;2024-01-30T11:21:53;14.90;;;13.33;;
13979;SDS011;73871;49.900;8.594;2024-01-30T11:24:21;16.10;;;14.43;;
13979;SDS011;73871;49.900;8.594;2024-01-30T11:26:57;19.07;;;15.30;;
13979;SDS011;73871;49.900;8.594;2024-01-30T11:29:25;25.23;;;18.70;;
13979;SDS011;73871;49.900;8.594;2024-01-30T11:31:54;17.27;;;13.67;;
13979;SDS011;73871;49.900;8.594;2024-01-30T11:34:22;14.87;;;13.27;;
13979;SDS011;73871;49.900;8.594;2024-01-30T11:36:56;15.17;;;13.63;;
13979;SDS011;73871;49.900;8.594;2024-01-30T11:39:31;16.43;;;13.80;;
13979;SDS011;73871;49.900;8.594;2024-01-30T11:41:58;14.17;;;12.67;;
13979;SDS011;73871;49.900;8.594;2024-01-30T11:44:25;15.93;;;14.07;;
13979;SDS011;73871;49.900;8.594;2024-01-30T11:46:53;17.03;;;13.00;;
13979;SDS011;73871;49.900;8.594;2024-01-30T11:49:20;16.77;;;13.27;;
13979;SDS011;73871;49.900;8.594;2024-01-30T11:51:47;16.43;;;13.33;;
13979;SDS011;73871;49.900;8.594;2024-01-30T11:54:17;15.63;;;12.30;;
13979;SDS011;73871;49.900;8.594;2024-01-30T11:56:44;15.20;;;13.57;;
13979;SDS011;73871;49.900;8.594;2024-01-30T11:59:11;16.37;;;12.83;;
13979;SDS011;73871;49.900;8.594;2024-01-30T12:01:38;17.37;;;12.67;;
13979;SDS011;73871;49.900;8.594;2024-01-30T12:04:06;15.10;;;13.37;;
13979;SDS011;73871;49.900;8.594;2024-01-30T12:06:36;18.43;;;12.80;;
13979;SDS011;73871;49.900;8.594;2024-01-30T12:09:03;13.77;;;12.13;;
13979;SDS011;73871;49.900;8.594;2024-01-30T12:11:30;14.77;;;11.87;;
13979;SDS011;73871;49.900;8.594;2024-01-30T12:13:57;13.53;;;12.13;;
13979;SDS011;73871;49.900;8.594;2024-01-30T12:16:24;18.57;;;12.67;;
13979;SDS011;73871;49.900;8.594;2024-01-30T12:18:58;15.03;;;11.97;;
13979;SDS011;73871;49.900;8.594;2024-01-30T12:21:28;13.93;;;12.53;;
13979;SDS011;73871;49.900;8.594;2024-01-30T12:23:58;15.37;;;12.20;;
13979;SDS011;73871;49.900;8.594;2024-01-30T12:26:26;16.43;;;13.00;;
13979;SDS011;73871;49.900;8.594;2024-01-30T12:28:56;16.50;;;12.00;;
13979;SDS011;73871;49.900;8.594;2024-01-30T12:31:28;16.43;;;12.67;;
13979;SDS011;73871;49.900;8.594;2024-01-30T12:33:55;14.07;;;11.97;;
13979;SDS011;73871;49.900;8.594;2024-01-30T12:36:24;14.40;;;12.53;;
13979;SDS011;73871;49.900;8.594;2024-01-30T12:38:52;13.50;;;12.10;;
13979;SDS011;73871;49.900;8.594;2024-01-30T12:41:19;14.43;;;12.10;;
13979;SDS011;73871;49.900;8.594;2024-01-30T12:43:46;12.30;;;11.10;;
13979;SDS011;73871;49.900;8.594;2024-01-30T12:46:16;12.80;;;11.03;;
13979;SDS011;73871;49.900;8.594;2024-01-30T12:48:43;12.40;;;10.83;;
13979;SDS011;73871;49.900;8.594;2024-01-30T12:51:10;14.07;;;11.27;;
13979;SDS011;73871;49.900;8.594;2024-01-30T12:53:37;13.93;;;11.57;;
13979;SDS011;73871;49.900;8.594;2024-01-30T12:56:04;14.30;;;10.93;;
13979;SDS011;73871;49.900;8.594;2024-01-30T12:58:31;12.93;;;11.53;;
13979;SDS011;73871;49.900;8.594;2024-01-30T13:00:58;14.10;;;11.30;;
13979;SDS011;73871;49.900;8.594;2024-01-30T13:03:25;12.33;;;10.77;;
13979;SDS011;73871;49.900;8.594;2024-01-30T13:05:51;11.50;;;9.87;;
13979;SDS011;73871;49.900;8.594;2024-01-30T13:08:19;15.63;;;10.30;;
13979;SDS011;73871;49.900;8.594;2024-01-30T13:10:45;11.70;;;10.30;;
13979;SDS011;73871;49.900;8.594;2024-01-30T13:13:15;12.80;;;10.60;;
13979;SDS011;73871;49.900;8.594;2024-01-30T13:15:46;11.87;;;9.57;;
13979;SDS011;73871;49.900;8.594;2024-01-30T13:18:14;11.73;;;10.20;;
13979;SDS011;73871;49.900;8.594;2024-01-30T13:20:41;13.77;;;9.60;;
13979;SDS011;73871;49.900;8.594;2024-01-30T13:23:08;11.50;;;9.90;;
13979;SDS011;73871;49.900;8.594;2024-01-30T13:25:35;13.53;;;10.17;;
13979;SDS011;73871;49.900;8.594;2024-01-30T13:28:02;13.17;;;10.10;;
13979;SDS011;73871;49.900;8.594;2024-01-30T13:30:30;11.47;;;10.20;;
13979;SDS011;73871;49.900;8.594;2024-01-30T13:32:56;12.70;;;9.67;;
13979;SDS011;73871;49.900;8.594;2024-01-30T13:35:25;11.63;;;10.37;;
13979;SDS011;73871;49.900;8.594;2024-01-30T13:37:51;12.90;;;9.50;;
13979;SDS011;73871;49.900;8.594;2024-01-30T13:40:18;10.27;;;8.93;;
13979;SDS011;73871;49.900;8.594;2024-01-30T13:42:45;11.50;;;9.23;;
13979;SDS011;73871;49.900;8.594;2024-01-30T13:45:12;10.33;;;8.80;;
13979;SDS011;73871;49.900;8.594;2024-01-30T13:47:39;11.70;;;9.17;;
13979;SDS011;73871;49.900;8.594;2024-01-30T13:50:06;9.90;;;8.90;;
13979;SDS011;73871;49.900;8.594;2024-01-30T13:52:34;9.57;;;8.17;;
13979;SDS011;73871;49.900;8.594;2024-01-30T13:55:10;10.03;;;8.63;;
13979;SDS011;73871;49.900;8.594;2024-01-30T13:57:37;11.80;;;9.90;;
13979;SDS011;73871;49.900;8.594;2024-01-30T14:00:05;10.47;;;8.53;;
13979;SDS011;73871;49.900;8.594;2024-01-30T14:02:38;12.33;;;9.40;;
13979;SDS011;73871;49.900;8.594;2024-01-30T14:05:05;10.97;;;8.97;;
13979;SDS011;73871;49.900;8.594;2024-01-30T14:07:32;12.37;;;9.17;;
13979;SDS011;73871;49.900;8.594;2024-01-30T14:10:00;11.37;;;9.03;;
13979;SDS011;73871;49.900;8.594;2024-01-30T14:12:26;10.70;;;8.70;;
13979;SDS011;73871;49.900;8.594;2024-01-30T14:14:53;11.67;;;9.17;;
13979;SDS011;73871;49.900;8.594;2024-01-30T14:17:20;11.50;;;9.27;;
13979;SDS011;73871;49.900;8.594;2024-01-30T14:19:47;11.00;;;9.73;;
13979;SDS011;73871;49.900;8.594;2024-01-30T14:22:14;10.77;;;9.23;;
13979;SDS011;73871;49.900;8.594;2024-01-30T14:24:41;9.77;;;8.77;;
13979;SDS011;73871;49.900;8.594;2024-01-30T14:27:07;12.90;;;10.03;;